sensor_id;sensor_type;location;lat;lon;timestamp;P1;durP1;ratioP1;P2;durP2;ratioP2
51556;SDS011;38766;53.194;5.532;2023-12-20T00:00:57;27.50;;;5.18;;
51556;SDS011;38766;53.194;5.532;2023-12-20T00:03:22;25.00;;;4.47;;
51556;SDS011;38766;53.194;5.532;2023-12-20T00:05:49;22.52;;;4.10;;
51556;SDS011;38766;53.194;5.532;2023-12-20T00:08:15;18.98;;;4.15;;
51556;SDS011;38766;53.194;5.532;2023-12-20T00:10:40;22.00;;;3.75;;
51556;SDS011;38766;53.194;5.532;2023-12-20T00:13:06;22.33;;;4.18;;
51556;SDS011;38766;53.194;5.532;2023-12-20T00:15:33;26.00;;;4.35;;
51556;SDS011;38766;53.194;5.532;2023-12-20T00:17:59;15.10;;;3.75;;
51556;SDS011;38766;53.194;5.532;2023-12-20T00:20:25;23.60;;;4.40;;
51556;SDS011;38766;53.194;5.532;2023-12-20T00:22:51;16.25;;;3.88;;
51556;SDS011;38766;53.194;5.532;2023-12-20T00:25:19;18.98;;;4.50;;
51556;SDS011;38766;53.194;5.532;2023-12-20T00:27:44;18.75;;;4.70;;
51556;SDS011;38766;53.194;5.532;2023-12-20T00:30:10;23.50;;;4.95;;
51556;SDS011;38766;53.194;5.532;2023-12-20T00:32:36;20.40;;;3.85;;
51556;SDS011;38766;53.194;5.532;2023-12-20T00:35:01;24.92;;;3.75;;
51556;SDS011;38766;53.194;5.532;2023-12-20T00:37:27;24.05;;;5.03;;
51556;SDS011;38766;53.194;5.532;2023-12-20T00:39:53;20.75;;;4.32;;
51556;SDS011;38766;53.194;5.532;2023-12-20T00:42:18;18.27;;;4.10;;
51556;SDS011;38766;53.194;5.532;2023-12-20T00:44:44;26.67;;;4.32;;
51556;SDS011;38766;53.194;5.532;2023-12-20T00:47:10;23.13;;;4.35;;
51556;SDS011;38766;53.194;5.532;2023-12-20T00:49:35;25.23;;;4.25;;
51556;SDS011;38766;53.194;5.532;2023-12-20T00:52:01;30.00;;;4.97;;
51556;SDS011;38766;53.194;5.532;2023-12-20T00:54:26;29.15;;;5.13;;
51556;SDS011;38766;53.194;5.532;2023-12-20T00:56:52;19.05;;;4.20;;
51556;SDS011;38766;53.194;5.532;2023-12-20T00:59:18;25.98;;;5.50;;
51556;SDS011;38766;53.194;5.532;2023-12-20T01:01:44;24.42;;;4.50;;
51556;SDS011;38766;53.194;5.532;2023-12-20T01:04:09;15.43;;;3.85;;
51556;SDS011;38766;53.194;5.532;2023-12-20T01:06:35;25.90;;;4.78;;
51556;SDS011;38766;53.194;5.532;2023-12-20T01:09:00;23.58;;;4.55;;
51556;SDS011;38766;53.194;5.532;2023-12-20T01:11:26;22.17;;;4.38;;
51556;SDS011;38766;53.194;5.532;2023-12-20T01:13:51;28.80;;;4.38;;
51556;SDS011;38766;53.194;5.532;2023-12-20T01:16:17;24.55;;;4.88;;
51556;SDS011;38766;53.194;5.532;2023-12-20T01:18:43;25.23;;;5.00;;
51556;SDS011;38766;53.194;5.532;2023-12-20T01:21:08;22.98;;;4.90;;
51556;SDS011;38766;53.194;5.532;2023-12-20T01:23:34;27.52;;;4.47;;
51556;SDS011;38766;53.194;5.532;2023-12-20T01:25:59;28.17;;;5.80;;
51556;SDS011;38766;53.194;5.532;2023-12-20T01:28:25;33.67;;;4.57;;
51556;SDS011;38766;53.194;5.532;2023-12-20T01:30:51;19.27;;;4.10;;
51556;SDS011;38766;53.194;5.532;2023-12-20T01:33:17;22.67;;;4.10;;
51556;SDS011;38766;53.194;5.532;2023-12-20T01:35:43;29.38;;;4.60;;
51556;SDS011;38766;53.194;5.532;2023-12-20T01:38:08;24.48;;;4.68;;
51556;SDS011;38766;53.194;5.532;2023-12-20T01:40:34;25.02;;;6.60;;
51556;SDS011;38766;53.194;5.532;2023-12-20T01:43:06;28.50;;;5.32;;
51556;SDS011;38766;53.194;5.532;2023-12-20T01:45:33;20.55;;;5.50;;
51556;SDS011;38766;53.194;5.532;2023-12-20T01:47:59;27.20;;;5.35;;
51556;SDS011;38766;53.194;5.532;2023-12-20T01:50:26;32.75;;;5.50;;
51556;SDS011;38766;53.194;5.532;2023-12-20T01:52:52;25.58;;;5.22;;
51556;SDS011;38766;53.194;5.532;2023-12-20T01:55:22;28.20;;;5.55;;
51556;SDS011;38766;53.194;5.532;2023-12-20T01:57:49;28.75;;;4.63;;
51556;SDS011;38766;53.194;5.532;2023-12-20T02:00:15;27.30;;;5.70;;
51556;SDS011;38766;53.194;5.532;2023-12-20T02:02:43;24.23;;;4.93;;
51556;SDS011;38766;53.194;5.532;2023-12-20T02:05:10;26.73;;;5.05;;
51556;SDS011;38766;53.194;5.532;2023-12-20T02:07:36;27.10;;;4.70;;
51556;SDS011;38766;53.194;5.532;2023-12-20T02:10:02;16.38;;;4.80;;
51556;SDS011;38766;53.194;5.532;2023-12-20T02:12:29;30.48;;;5.10;;
51556;SDS011;38766;53.194;5.532;2023-12-20T02:14:55;30.63;;;5.85;;
51556;SDS011;38766;53.194;5.532;2023-12-20T02:17:21;26.20;;;5.63;;
51556;SDS011;38766;53.194;5.532;2023-12-20T02:19:48;31.08;;;5.53;;
51556;SDS011;38766;53.194;5.532;2023-12-20T02:22:14;18.08;;;4.38;;
51556;SDS011;38766;53.194;5.532;2023-12-20T02:24:40;34.22;;;5.15;;
51556;SDS011;38766;53.194;5.532;2023-12-20T02:27:06;33.20;;;5.80;;
51556;SDS011;38766;53.194;5.532;2023-12-20T02:29:35;31.95;;;4.47;;
51556;SDS011;38766;53.194;5.532;2023-12-20T02:32:01;26.55;;;5.30;;
51556;SDS011;38766;53.194;5.532;2023-12-20T02:34:27;30.02;;;5.70;;
51556;SDS011;38766;53.194;5.532;2023-12-20T02:36:53;21.55;;;5.15;;
51556;SDS011;38766;53.194;5.532;2023-12-20T02:39:19;28.65;;;5.57;;
51556;SDS011;38766;53.194;5.532;2023-12-20T02:41:45;19.70;;;4.90;;
51556;SDS011;38766;53.194;5.532;2023-12-20T02:44:10;23.63;;;4.10;;
51556;SDS011;38766;53.194;5.532;2023-12-20T02:46:36;21.42;;;4.53;;
51556;SDS011;38766;53.194;5.532;2023-12-20T02:49:01;25.13;;;4.75;;
51556;SDS011;38766;53.194;5.532;2023-12-20T02:51:27;27.77;;;5.18;;
51556;SDS011;38766;53.194;5.532;2023-12-20T02:53:52;30.65;;;5.10;;
51556;SDS011;38766;53.194;5.532;2023-12-20T02:56:18;28.73;;;5.43;;
51556;SDS011;38766;53.194;5.532;2023-12-20T02:58:44;23.50;;;5.32;;
51556;SDS011;38766;53.194;5.532;2023-12-20T03:01:10;28.08;;;5.03;;
51556;SDS011;38766;53.194;5.532;2023-12-20T03:03:36;24.15;;;5.70;;
51556;SDS011;38766;53.194;5.532;2023-12-20T03:06:01;28.92;;;5.85;;
51556;SDS011;38766;53.194;5.532;2023-12-20T03:08:27;15.45;;;3.83;;
51556;SDS011;38766;53.194;5.532;2023-12-20T03:10:52;21.08;;;4.22;;
51556;SDS011;38766;53.194;5.532;2023-12-20T03:13:18;24.13;;;5.13;;
51556;SDS011;38766;53.194;5.532;2023-12-20T03:15:44;25.08;;;4.90;;
51556;SDS011;38766;53.194;5.532;2023-12-20T03:18:11;36.28;;;5.28;;
51556;SDS011;38766;53.194;5.532;2023-12-20T03:20:36;21.65;;;4.93;;
51556;SDS011;38766;53.194;5.532;2023-12-20T03:23:02;28.35;;;4.90;;
51556;SDS011;38766;53.194;5.532;2023-12-20T03:25:28;25.10;;;4.80;;
51556;SDS011;38766;53.194;5.532;2023-12-20T03:27:54;19.17;;;4.20;;
51556;SDS011;38766;53.194;5.532;2023-12-20T03:30:20;21.38;;;4.15;;
51556;SDS011;38766;53.194;5.532;2023-12-20T03:32:46;27.30;;;4.90;;
51556;SDS011;38766;53.194;5.532;2023-12-20T03:35:12;29.02;;;4.28;;
51556;SDS011;38766;53.194;5.532;2023-12-20T03:37:38;23.70;;;5.63;;
51556;SDS011;38766;53.194;5.532;2023-12-20T03:40:04;37.97;;;6.28;;
51556;SDS011;38766;53.194;5.532;2023-12-20T03:42:30;19.80;;;4.93;;
51556;SDS011;38766;53.194;5.532;2023-12-20T03:44:56;25.90;;;5.35;;
51556;SDS011;38766;53.194;5.532;2023-12-20T03:47:22;25.60;;;5.63;;
51556;SDS011;38766;53.194;5.532;2023-12-20T03:49:47;35.85;;;5.88;;
51556;SDS011;38766;53.194;5.532;2023-12-20T03:52:13;20.75;;;5.05;;
51556;SDS011;38766;53.194;5.532;2023-12-20T03:54:39;31.55;;;6.78;;
51556;SDS011;38766;53.194;5.532;2023-12-20T03:57:07;26.45;;;4.82;;
51556;SDS011;38766;53.194;5.532;2023-12-20T03:59:36;25.58;;;5.43;;
51556;SDS011;38766;53.194;5.532;2023-12-20T04:02:02;20.17;;;4.32;;
51556;SDS011;38766;53.194;5.532;2023-12-20T04:04:28;21.38;;;3.55;;
51556;SDS011;38766;53.194;5.532;2023-12-20T04:06:54;22.67;;;4.38;;
51556;SDS011;38766;53.194;5.532;2023-12-20T04:09:19;24.40;;;4.95;;
51556;SDS011;38766;53.194;5.532;2023-12-20T04:11:45;24.13;;;5.50;;
51556;SDS011;38766;53.194;5.532;2023-12-20T04:14:11;22.33;;;4.30;;
51556;SDS011;38766;53.194;5.532;2023-12-20T04:16:36;22.85;;;4.38;;
51556;SDS011;38766;53.194;5.532;2023-12-20T04:19:02;31.52;;;5.28;;
51556;SDS011;38766;53.194;5.532;2023-12-20T04:21:28;33.25;;;5.93;;
51556;SDS011;38766;53.194;5.532;2023-12-20T04:23:54;29.65;;;5.72;;
51556;SDS011;38766;53.194;5.532;2023-12-20T04:26:19;28.13;;;5.50;;
51556;SDS011;38766;53.194;5.532;2023-12-20T04:28:45;27.38;;;5.70;;
51556;SDS011;38766;53.194;5.532;2023-12-20T04:31:11;29.95;;;5.22;;
51556;SDS011;38766;53.194;5.532;2023-12-20T04:33:36;24.50;;;5.40;;
51556;SDS011;38766;53.194;5.532;2023-12-20T04:36:02;23.15;;;4.90;;
51556;SDS011;38766;53.194;5.532;2023-12-20T04:38:28;28.83;;;5.13;;
51556;SDS011;38766;53.194;5.532;2023-12-20T04:40:54;21.92;;;4.30;;
51556;SDS011;38766;53.194;5.532;2023-12-20T04:43:19;18.55;;;4.47;;
51556;SDS011;38766;53.194;5.532;2023-12-20T04:45:45;23.42;;;4.65;;
51556;SDS011;38766;53.194;5.532;2023-12-20T04:48:10;30.88;;;5.75;;
51556;SDS011;38766;53.194;5.532;2023-12-20T04:50:37;29.20;;;5.57;;
51556;SDS011;38766;53.194;5.532;2023-12-20T04:53:02;25.75;;;5.63;;
51556;SDS011;38766;53.194;5.532;2023-12-20T04:55:28;22.73;;;5.03;;
51556;SDS011;38766;53.194;5.532;2023-12-20T04:57:54;25.88;;;5.72;;
51556;SDS011;38766;53.194;5.532;2023-12-20T05:00:20;27.63;;;5.68;;
51556;SDS011;38766;53.194;5.532;2023-12-20T05:02:45;38.40;;;6.00;;
51556;SDS011;38766;53.194;5.532;2023-12-20T05:05:11;34.55;;;6.88;;
51556;SDS011;38766;53.194;5.532;2023-12-20T05:07:36;33.75;;;5.45;;
51556;SDS011;38766;53.194;5.532;2023-12-20T05:10:02;27.77;;;5.55;;
51556;SDS011;38766;53.194;5.532;2023-12-20T05:12:29;23.60;;;5.05;;
51556;SDS011;38766;53.194;5.532;2023-12-20T05:14:55;18.52;;;5.03;;
51556;SDS011;38766;53.194;5.532;2023-12-20T05:17:21;29.23;;;5.95;;
51556;SDS011;38766;53.194;5.532;2023-12-20T05:19:46;23.30;;;5.10;;
51556;SDS011;38766;53.194;5.532;2023-12-20T05:22:12;23.88;;;4.80;;
51556;SDS011;38766;53.194;5.532;2023-12-20T05:24:38;23.50;;;4.55;;
51556;SDS011;38766;53.194;5.532;2023-12-20T05:27:03;28.40;;;4.43;;
51556;SDS011;38766;53.194;5.532;2023-12-20T05:29:29;35.03;;;5.82;;
51556;SDS011;38766;53.194;5.532;2023-12-20T05:31:55;21.67;;;5.50;;
51556;SDS011;38766;53.194;5.532;2023-12-20T05:34:23;27.45;;;5.35;;
51556;SDS011;38766;53.194;5.532;2023-12-20T05:36:49;18.90;;;5.28;;
51556;SDS011;38766;53.194;5.532;2023-12-20T05:39:15;33.58;;;5.68;;
51556;SDS011;38766;53.194;5.532;2023-12-20T05:41:40;20.05;;;5.40;;
51556;SDS011;38766;53.194;5.532;2023-12-20T05:44:06;36.60;;;7.60;;
51556;SDS011;38766;53.194;5.532;2023-12-20T05:46:31;25.77;;;4.60;;
51556;SDS011;38766;53.194;5.532;2023-12-20T05:48:57;27.20;;;5.38;;
51556;SDS011;38766;53.194;5.532;2023-12-20T05:51:23;22.15;;;4.88;;
51556;SDS011;38766;53.194;5.532;2023-12-20T05:53:49;22.08;;;4.50;;
51556;SDS011;38766;53.194;5.532;2023-12-20T05:56:15;20.75;;;4.50;;
51556;SDS011;38766;53.194;5.532;2023-12-20T05:58:40;26.50;;;6.72;;
51556;SDS011;38766;53.194;5.532;2023-12-20T06:01:08;23.30;;;4.57;;
51556;SDS011;38766;53.194;5.532;2023-12-20T06:03:34;22.33;;;5.13;;
51556;SDS011;38766;53.194;5.532;2023-12-20T06:06:04;21.65;;;4.53;;
51556;SDS011;38766;53.194;5.532;2023-12-20T06:08:31;30.52;;;5.72;;
51556;SDS011;38766;53.194;5.532;2023-12-20T06:10:57;28.73;;;4.78;;
51556;SDS011;38766;53.194;5.532;2023-12-20T06:13:23;26.38;;;5.60;;
51556;SDS011;38766;53.194;5.532;2023-12-20T06:15:48;30.83;;;6.78;;
51556;SDS011;38766;53.194;5.532;2023-12-20T06:18:14;27.38;;;5.10;;
51556;SDS011;38766;53.194;5.532;2023-12-20T06:20:39;28.90;;;5.40;;
51556;SDS011;38766;53.194;5.532;2023-12-20T06:23:05;24.45;;;4.93;;
51556;SDS011;38766;53.194;5.532;2023-12-20T06:25:31;27.40;;;6.13;;
51556;SDS011;38766;53.194;5.532;2023-12-20T06:27:56;28.60;;;6.43;;
51556;SDS011;38766;53.194;5.532;2023-12-20T06:30:22;28.05;;;6.32;;
51556;SDS011;38766;53.194;5.532;2023-12-20T06:32:49;31.05;;;5.90;;
51556;SDS011;38766;53.194;5.532;2023-12-20T06:35:15;29.85;;;6.05;;
51556;SDS011;38766;53.194;5.532;2023-12-20T06:37:41;22.95;;;6.18;;
51556;SDS011;38766;53.194;5.532;2023-12-20T06:40:08;33.33;;;5.63;;
51556;SDS011;38766;53.194;5.532;2023-12-20T06:42:35;25.85;;;6.35;;
51556;SDS011;38766;53.194;5.532;2023-12-20T06:45:01;29.90;;;4.80;;
51556;SDS011;38766;53.194;5.532;2023-12-20T06:47:27;27.23;;;6.35;;
51556;SDS011;38766;53.194;5.532;2023-12-20T06:49:52;32.55;;;5.95;;
51556;SDS011;38766;53.194;5.532;2023-12-20T06:52:18;43.45;;;5.97;;
51556;SDS011;38766;53.194;5.532;2023-12-20T06:54:43;23.45;;;5.50;;
51556;SDS011;38766;53.194;5.532;2023-12-20T06:57:09;27.20;;;5.45;;
51556;SDS011;38766;53.194;5.532;2023-12-20T06:59:43;23.50;;;5.65;;
51556;SDS011;38766;53.194;5.532;2023-12-20T07:02:09;28.25;;;5.82;;
51556;SDS011;38766;53.194;5.532;2023-12-20T07:04:38;22.50;;;5.93;;
51556;SDS011;38766;53.194;5.532;2023-12-20T07:07:07;22.80;;;4.65;;
51556;SDS011;38766;53.194;5.532;2023-12-20T07:09:33;32.30;;;5.25;;
51556;SDS011;38766;53.194;5.532;2023-12-20T07:11:59;28.20;;;6.63;;
51556;SDS011;38766;53.194;5.532;2023-12-20T07:14:24;32.45;;;6.05;;
51556;SDS011;38766;53.194;5.532;2023-12-20T07:16:50;35.28;;;5.50;;
51556;SDS011;38766;53.194;5.532;2023-12-20T07:19:16;30.67;;;5.82;;
51556;SDS011;38766;53.194;5.532;2023-12-20T07:21:41;24.80;;;5.65;;
51556;SDS011;38766;53.194;5.532;2023-12-20T07:24:07;41.08;;;5.57;;
51556;SDS011;38766;53.194;5.532;2023-12-20T07:26:33;31.95;;;6.07;;
51556;SDS011;38766;53.194;5.532;2023-12-20T07:28:59;23.67;;;5.80;;
51556;SDS011;38766;53.194;5.532;2023-12-20T07:31:25;30.98;;;5.82;;
51556;SDS011;38766;53.194;5.532;2023-12-20T07:33:51;26.35;;;6.03;;
51556;SDS011;38766;53.194;5.532;2023-12-20T07:36:16;25.35;;;5.40;;
51556;SDS011;38766;53.194;5.532;2023-12-20T07:38:42;24.83;;;4.80;;
51556;SDS011;38766;53.194;5.532;2023-12-20T07:41:12;24.67;;;5.22;;
51556;SDS011;38766;53.194;5.532;2023-12-20T07:43:38;23.67;;;5.65;;
51556;SDS011;38766;53.194;5.532;2023-12-20T07:46:09;32.72;;;6.10;;
51556;SDS011;38766;53.194;5.532;2023-12-20T07:48:35;27.63;;;5.38;;
51556;SDS011;38766;53.194;5.532;2023-12-20T07:51:01;27.05;;;5.47;;
51556;SDS011;38766;53.194;5.532;2023-12-20T07:53:27;28.65;;;5.65;;
51556;SDS011;38766;53.194;5.532;2023-12-20T07:55:53;28.55;;;6.18;;
51556;SDS011;38766;53.194;5.532;2023-12-20T07:58:18;32.97;;;6.40;;
51556;SDS011;38766;53.194;5.532;2023-12-20T08:00:44;46.88;;;5.68;;
51556;SDS011;38766;53.194;5.532;2023-12-20T08:03:10;28.85;;;5.90;;
51556;SDS011;38766;53.194;5.532;2023-12-20T08:05:36;25.83;;;4.70;;
51556;SDS011;38766;53.194;5.532;2023-12-20T08:08:04;22.58;;;6.07;;
51556;SDS011;38766;53.194;5.532;2023-12-20T08:10:30;31.02;;;6.90;;
51556;SDS011;38766;53.194;5.532;2023-12-20T08:12:55;29.30;;;6.07;;
51556;SDS011;38766;53.194;5.532;2023-12-20T08:15:21;28.65;;;5.60;;
51556;SDS011;38766;53.194;5.532;2023-12-20T08:17:47;27.55;;;6.10;;
51556;SDS011;38766;53.194;5.532;2023-12-20T08:20:12;33.75;;;6.50;;
51556;SDS011;38766;53.194;5.532;2023-12-20T08:22:38;38.85;;;6.57;;
51556;SDS011;38766;53.194;5.532;2023-12-20T08:25:04;30.38;;;6.18;;
51556;SDS011;38766;53.194;5.532;2023-12-20T08:27:29;28.52;;;5.30;;
51556;SDS011;38766;53.194;5.532;2023-12-20T08:29:56;24.45;;;4.90;;
51556;SDS011;38766;53.194;5.532;2023-12-20T08:32:24;29.70;;;5.15;;
51556;SDS011;38766;53.194;5.532;2023-12-20T08:34:51;21.10;;;4.85;;
51556;SDS011;38766;53.194;5.532;2023-12-20T08:37:17;21.08;;;4.70;;
51556;SDS011;38766;53.194;5.532;2023-12-20T08:39:43;27.15;;;5.60;;
51556;SDS011;38766;53.194;5.532;2023-12-20T08:42:09;18.23;;;3.28;;
51556;SDS011;38766;53.194;5.532;2023-12-20T08:44:34;13.15;;;2.97;;
51556;SDS011;38766;53.194;5.532;2023-12-20T08:47:00;23.17;;;3.20;;
51556;SDS011;38766;53.194;5.532;2023-12-20T08:49:25;16.13;;;3.67;;
51556;SDS011;38766;53.194;5.532;2023-12-20T08:51:52;17.20;;;3.95;;
51556;SDS011;38766;53.194;5.532;2023-12-20T08:54:18;22.25;;;4.03;;
51556;SDS011;38766;53.194;5.532;2023-12-20T08:56:44;26.08;;;4.72;;
51556;SDS011;38766;53.194;5.532;2023-12-20T08:59:11;19.17;;;4.15;;
51556;SDS011;38766;53.194;5.532;2023-12-20T09:01:37;13.23;;;2.33;;
51556;SDS011;38766;53.194;5.532;2023-12-20T09:04:02;12.48;;;2.35;;
51556;SDS011;38766;53.194;5.532;2023-12-20T09:06:28;15.45;;;3.03;;
51556;SDS011;38766;53.194;5.532;2023-12-20T09:08:54;9.63;;;2.28;;
51556;SDS011;38766;53.194;5.532;2023-12-20T09:11:19;20.70;;;3.40;;
51556;SDS011;38766;53.194;5.532;2023-12-20T09:13:45;10.98;;;2.08;;
51556;SDS011;38766;53.194;5.532;2023-12-20T09:16:10;13.40;;;2.38;;
51556;SDS011;38766;53.194;5.532;2023-12-20T09:18:38;15.52;;;2.55;;
51556;SDS011;38766;53.194;5.532;2023-12-20T09:21:03;11.30;;;1.98;;
51556;SDS011;38766;53.194;5.532;2023-12-20T09:23:29;11.57;;;2.30;;
51556;SDS011;38766;53.194;5.532;2023-12-20T09:25:54;15.00;;;2.22;;
51556;SDS011;38766;53.194;5.532;2023-12-20T09:28:20;13.05;;;2.65;;
51556;SDS011;38766;53.194;5.532;2023-12-20T09:30:46;15.15;;;2.22;;
51556;SDS011;38766;53.194;5.532;2023-12-20T09:33:12;11.50;;;2.70;;
51556;SDS011;38766;53.194;5.532;2023-12-20T09:35:39;10.05;;;2.55;;
51556;SDS011;38766;53.194;5.532;2023-12-20T09:38:04;13.93;;;3.50;;
51556;SDS011;38766;53.194;5.532;2023-12-20T09:40:30;11.27;;;2.80;;
51556;SDS011;38766;53.194;5.532;2023-12-20T09:43:07;14.55;;;2.40;;
51556;SDS011;38766;53.194;5.532;2023-12-20T09:45:36;14.05;;;2.05;;
51556;SDS011;38766;53.194;5.532;2023-12-20T09:48:04;10.52;;;2.45;;
51556;SDS011;38766;53.194;5.532;2023-12-20T09:50:30;11.02;;;2.50;;
51556;SDS011;38766;53.194;5.532;2023-12-20T09:52:57;11.52;;;3.50;;
51556;SDS011;38766;53.194;5.532;2023-12-20T09:55:25;15.70;;;2.78;;
51556;SDS011;38766;53.194;5.532;2023-12-20T09:57:53;14.55;;;2.72;;
51556;SDS011;38766;53.194;5.532;2023-12-20T10:00:19;16.63;;;2.85;;
51556;SDS011;38766;53.194;5.532;2023-12-20T10:02:46;12.93;;;2.92;;
51556;SDS011;38766;53.194;5.532;2023-12-20T10:05:23;18.90;;;3.25;;
51556;SDS011;38766;53.194;5.532;2023-12-20T10:07:58;15.18;;;3.42;;
51556;SDS011;38766;53.194;5.532;2023-12-20T10:10:25;19.60;;;4.05;;
51556;SDS011;38766;53.194;5.532;2023-12-20T10:13:04;24.52;;;3.72;;
51556;SDS011;38766;53.194;5.532;2023-12-20T10:15:32;19.63;;;3.40;;
51556;SDS011;38766;53.194;5.532;2023-12-20T10:17:58;12.60;;;2.63;;
51556;SDS011;38766;53.194;5.532;2023-12-20T10:20:24;10.57;;;2.95;;
51556;SDS011;38766;53.194;5.532;2023-12-20T10:22:50;18.63;;;3.00;;
51556;SDS011;38766;53.194;5.532;2023-12-20T10:25:18;17.00;;;3.53;;
51556;SDS011;38766;53.194;5.532;2023-12-20T10:27:45;13.68;;;2.42;;
51556;SDS011;38766;53.194;5.532;2023-12-20T10:30:11;11.88;;;2.35;;
51556;SDS011;38766;53.194;5.532;2023-12-20T10:32:37;8.20;;;1.92;;
51556;SDS011;38766;53.194;5.532;2023-12-20T10:35:02;16.15;;;2.65;;
51556;SDS011;38766;53.194;5.532;2023-12-20T10:37:29;14.10;;;2.72;;
51556;SDS011;38766;53.194;5.532;2023-12-20T10:39:55;13.20;;;2.20;;
51556;SDS011;38766;53.194;5.532;2023-12-20T10:42:23;13.25;;;2.78;;
51556;SDS011;38766;53.194;5.532;2023-12-20T10:44:51;11.63;;;3.13;;
51556;SDS011;38766;53.194;5.532;2023-12-20T10:47:19;21.40;;;3.10;;
51556;SDS011;38766;53.194;5.532;2023-12-20T10:49:45;20.17;;;3.47;;
51556;SDS011;38766;53.194;5.532;2023-12-20T10:52:12;12.55;;;3.20;;
51556;SDS011;38766;53.194;5.532;2023-12-20T10:54:41;18.33;;;3.15;;
51556;SDS011;38766;53.194;5.532;2023-12-20T10:57:07;20.65;;;3.42;;
51556;SDS011;38766;53.194;5.532;2023-12-20T10:59:33;18.33;;;3.28;;
51556;SDS011;38766;53.194;5.532;2023-12-20T11:02:05;12.57;;;2.67;;
51556;SDS011;38766;53.194;5.532;2023-12-20T11:04:33;16.70;;;3.10;;
51556;SDS011;38766;53.194;5.532;2023-12-20T11:07:08;10.45;;;2.42;;
51556;SDS011;38766;53.194;5.532;2023-12-20T11:09:55;14.95;;;2.67;;
51556;SDS011;38766;53.194;5.532;2023-12-20T11:12:28;13.32;;;2.70;;
51556;SDS011;38766;53.194;5.532;2023-12-20T11:15:03;8.68;;;2.90;;
51556;SDS011;38766;53.194;5.532;2023-12-20T11:17:29;16.58;;;2.72;;
51556;SDS011;38766;53.194;5.532;2023-12-20T11:22:26;19.10;;;4.25;;
51556;SDS011;38766;53.194;5.532;2023-12-20T11:24:55;15.57;;;3.55;;
51556;SDS011;38766;53.194;5.532;2023-12-20T11:27:24;14.63;;;3.17;;
51556;SDS011;38766;53.194;5.532;2023-12-20T11:29:56;18.80;;;2.75;;
51556;SDS011;38766;53.194;5.532;2023-12-20T11:34:57;20.02;;;3.72;;
51556;SDS011;38766;53.194;5.532;2023-12-20T11:37:30;11.68;;;3.30;;
51556;SDS011;38766;53.194;5.532;2023-12-20T11:40:06;18.23;;;3.08;;
51556;SDS011;38766;53.194;5.532;2023-12-20T11:45:32;15.85;;;3.65;;
51556;SDS011;38766;53.194;5.532;2023-12-20T11:47:59;20.65;;;3.60;;
51556;SDS011;38766;53.194;5.532;2023-12-20T11:50:29;16.08;;;3.08;;
51556;SDS011;38766;53.194;5.532;2023-12-20T11:52:55;17.00;;;3.42;;
51556;SDS011;38766;53.194;5.532;2023-12-20T11:55:22;15.32;;;4.03;;
51556;SDS011;38766;53.194;5.532;2023-12-20T11:57:49;17.10;;;2.83;;
51556;SDS011;38766;53.194;5.532;2023-12-20T12:00:15;13.77;;;2.70;;
51556;SDS011;38766;53.194;5.532;2023-12-20T12:02:41;15.23;;;3.28;;
51556;SDS011;38766;53.194;5.532;2023-12-20T12:05:07;12.13;;;2.33;;
51556;SDS011;38766;53.194;5.532;2023-12-20T12:07:36;12.63;;;2.88;;
51556;SDS011;38766;53.194;5.532;2023-12-20T12:10:01;12.18;;;2.90;;
51556;SDS011;38766;53.194;5.532;2023-12-20T12:12:28;13.10;;;2.55;;
51556;SDS011;38766;53.194;5.532;2023-12-20T12:14:55;9.63;;;2.20;;
51556;SDS011;38766;53.194;5.532;2023-12-20T12:17:22;8.63;;;1.98;;
51556;SDS011;38766;53.194;5.532;2023-12-20T12:19:48;15.60;;;2.70;;
51556;SDS011;38766;53.194;5.532;2023-12-20T12:22:14;11.55;;;2.08;;
51556;SDS011;38766;53.194;5.532;2023-12-20T12:24:42;11.07;;;2.22;;
51556;SDS011;38766;53.194;5.532;2023-12-20T12:27:09;13.70;;;2.33;;
51556;SDS011;38766;53.194;5.532;2023-12-20T12:29:35;15.55;;;2.53;;
51556;SDS011;38766;53.194;5.532;2023-12-20T12:32:04;10.15;;;1.90;;
51556;SDS011;38766;53.194;5.532;2023-12-20T12:34:31;11.75;;;2.15;;
51556;SDS011;38766;53.194;5.532;2023-12-20T12:36:57;10.65;;;2.13;;
51556;SDS011;38766;53.194;5.532;2023-12-20T12:39:23;13.63;;;2.17;;
51556;SDS011;38766;53.194;5.532;2023-12-20T12:41:52;16.92;;;2.83;;
51556;SDS011;38766;53.194;5.532;2023-12-20T12:44:18;9.30;;;2.75;;
51556;SDS011;38766;53.194;5.532;2023-12-20T12:46:45;12.05;;;2.60;;
51556;SDS011;38766;53.194;5.532;2023-12-20T12:49:11;10.75;;;2.33;;
51556;SDS011;38766;53.194;5.532;2023-12-20T12:51:37;12.55;;;2.30;;
51556;SDS011;38766;53.194;5.532;2023-12-20T12:54:03;9.32;;;2.00;;
51556;SDS011;38766;53.194;5.532;2023-12-20T12:56:29;11.82;;;2.28;;
51556;SDS011;38766;53.194;5.532;2023-12-20T12:58:55;9.82;;;2.00;;
51556;SDS011;38766;53.194;5.532;2023-12-20T13:01:21;10.18;;;2.00;;
51556;SDS011;38766;53.194;5.532;2023-12-20T13:03:46;9.23;;;1.90;;
51556;SDS011;38766;53.194;5.532;2023-12-20T13:06:12;7.55;;;1.70;;
51556;SDS011;38766;53.194;5.532;2023-12-20T13:08:38;6.72;;;1.65;;
51556;SDS011;38766;53.194;5.532;2023-12-20T13:11:03;9.98;;;1.90;;
51556;SDS011;38766;53.194;5.532;2023-12-20T13:13:29;15.93;;;2.15;;
51556;SDS011;38766;53.194;5.532;2023-12-20T13:15:56;8.75;;;2.45;;
51556;SDS011;38766;53.194;5.532;2023-12-20T13:18:22;12.13;;;1.85;;
51556;SDS011;38766;53.194;5.532;2023-12-20T13:20:48;13.75;;;2.08;;
51556;SDS011;38766;53.194;5.532;2023-12-20T13:23:14;11.48;;;1.92;;
51556;SDS011;38766;53.194;5.532;2023-12-20T13:25:40;12.00;;;2.45;;
51556;SDS011;38766;53.194;5.532;2023-12-20T13:28:06;10.93;;;1.88;;
51556;SDS011;38766;53.194;5.532;2023-12-20T13:30:33;11.77;;;2.05;;
51556;SDS011;38766;53.194;5.532;2023-12-20T13:32:59;15.07;;;2.42;;
51556;SDS011;38766;53.194;5.532;2023-12-20T13:35:25;11.13;;;2.40;;
51556;SDS011;38766;53.194;5.532;2023-12-20T13:37:50;10.32;;;2.22;;
51556;SDS011;38766;53.194;5.532;2023-12-20T13:40:16;15.00;;;2.30;;
51556;SDS011;38766;53.194;5.532;2023-12-20T13:42:43;11.93;;;2.40;;
51556;SDS011;38766;53.194;5.532;2023-12-20T13:45:08;11.07;;;2.60;;
51556;SDS011;38766;53.194;5.532;2023-12-20T13:47:34;10.75;;;2.67;;
51556;SDS011;38766;53.194;5.532;2023-12-20T13:50:00;13.65;;;2.03;;
51556;SDS011;38766;53.194;5.532;2023-12-20T13:52:26;8.00;;;2.05;;
51556;SDS011;38766;53.194;5.532;2023-12-20T13:54:51;15.18;;;3.03;;
51556;SDS011;38766;53.194;5.532;2023-12-20T13:57:17;18.20;;;3.47;;
51556;SDS011;38766;53.194;5.532;2023-12-20T13:59:43;15.55;;;3.17;;
51556;SDS011;38766;53.194;5.532;2023-12-20T14:02:09;30.30;;;4.15;;
51556;SDS011;38766;53.194;5.532;2023-12-20T14:04:34;24.02;;;3.72;;
51556;SDS011;38766;53.194;5.532;2023-12-20T14:07:00;23.98;;;4.22;;
51556;SDS011;38766;53.194;5.532;2023-12-20T14:09:26;29.02;;;5.15;;
51556;SDS011;38766;53.194;5.532;2023-12-20T14:11:51;25.13;;;4.15;;
51556;SDS011;38766;53.194;5.532;2023-12-20T14:14:20;28.58;;;4.57;;
51556;SDS011;38766;53.194;5.532;2023-12-20T14:16:45;26.77;;;4.72;;
51556;SDS011;38766;53.194;5.532;2023-12-20T14:19:11;26.85;;;4.70;;
51556;SDS011;38766;53.194;5.532;2023-12-20T14:21:37;23.75;;;4.70;;
51556;SDS011;38766;53.194;5.532;2023-12-20T14:24:03;23.95;;;3.95;;
51556;SDS011;38766;53.194;5.532;2023-12-20T14:26:29;24.05;;;4.10;;
51556;SDS011;38766;53.194;5.532;2023-12-20T14:28:56;20.10;;;3.42;;
51556;SDS011;38766;53.194;5.532;2023-12-20T14:31:21;19.10;;;3.95;;
51556;SDS011;38766;53.194;5.532;2023-12-20T14:33:49;24.30;;;4.35;;
51556;SDS011;38766;53.194;5.532;2023-12-20T14:36:16;16.98;;;4.13;;
51556;SDS011;38766;53.194;5.532;2023-12-20T14:38:43;29.33;;;4.40;;